KVRB/VRB METAR and TAF weather

Enter ICAO airport designator
Station Type Date Time Source
KVRB METAR 2021/09/16 20:53 UTC NOAA

KVRB 162053Z 24012G18KT 10SM VCTS FEW018 BKN025 OVC043 27/23 A2999 RMK AO2 TSB20E40 SLP153 T02720233 53006


Station Type Date Time Source
KVRB Decoded METAR 2021/09/16 20:53 UTC NOAA

VERO BEACH MUNICIPAL AIRPORT , FL, United States (KVRB) 27-39N 080-25W 10M
Sep 16, 2021 - 04:53 PM EDT / 2021.09.16 2053 UTC
Wind: from the WSW (240 degrees) at 14 MPH (12 KT) gusting to 21 MPH (18 KT):0
Visibility: 10 mile(s):0
Sky conditions: overcast
Weather: thunder in the vicinity
Temperature: 81.0 F (27.2 C)
Dew Point: 73.9 F (23.3 C)
Relative Humidity: 79%
Pressure (altimeter): 29.99 in. Hg (1015 hPa)
Pressure tendency: 0.02 inches (0.6 hPa) higher than three hours ago
ob: KVRB 162053Z 24012G18KT 10SM VCTS FEW018 BKN025 OVC043 27/23 A2999 RMK AO2 TSB20E40 SLP153 T02720233 53006
cycle: 21

Station Type Date Time Source
KVRB TAF 2021/09/16 18:22 UTC NOAA

TAF KVRB 161720Z 1618/1718 11010KT P6SM VCSH SCT035 SCT070
TEMPO 1621/1624 4SM TSRA BKN030CB
FM170200 VRB03KT P6SM SCT050 BKN250
FM171400 11006KT P6SM VCSH SCT035 SCT250

Example: see airport list